sensor_id;sensor_type;location;lat;lon;timestamp;P1;durP1;ratioP1;P2;durP2;ratioP2
29412;SDS011;16389;50.126;8.450;2023-03-13T00:03:45;7.35;;;2.03;;
29412;SDS011;16389;50.126;8.450;2023-03-13T00:06:11;11.38;;;3.38;;
29412;SDS011;16389;50.126;8.450;2023-03-13T00:08:37;7.57;;;2.28;;
29412;SDS011;16389;50.126;8.450;2023-03-13T00:11:03;10.38;;;2.10;;
29412;SDS011;16389;50.126;8.450;2023-03-13T00:13:30;12.63;;;2.63;;
29412;SDS011;16389;50.126;8.450;2023-03-13T00:16:02;8.93;;;2.42;;
29412;SDS011;16389;50.126;8.450;2023-03-13T00:18:30;6.03;;;3.85;;
29412;SDS011;16389;50.126;8.450;2023-03-13T00:23:25;12.40;;;3.03;;
29412;SDS011;16389;50.126;8.450;2023-03-13T00:26:02;8.75;;;3.33;;
29412;SDS011;16389;50.126;8.450;2023-03-13T00:28:33;7.65;;;3.33;;
29412;SDS011;16389;50.126;8.450;2023-03-13T00:31:00;9.77;;;3.30;;
29412;SDS011;16389;50.126;8.450;2023-03-13T00:33:30;8.73;;;2.45;;
29412;SDS011;16389;50.126;8.450;2023-03-13T00:36:00;6.63;;;2.45;;
29412;SDS011;16389;50.126;8.450;2023-03-13T00:38:28;4.43;;;1.92;;
29412;SDS011;16389;50.126;8.450;2023-03-13T00:40:58;16.08;;;2.50;;
29412;SDS011;16389;50.126;8.450;2023-03-13T00:43:37;5.38;;;2.45;;
29412;SDS011;16389;50.126;8.450;2023-03-13T00:46:04;11.40;;;2.15;;
29412;SDS011;16389;50.126;8.450;2023-03-13T00:48:29;11.90;;;2.40;;
29412;SDS011;16389;50.126;8.450;2023-03-13T00:50:55;5.47;;;2.38;;
29412;SDS011;16389;50.126;8.450;2023-03-13T00:53:21;11.88;;;2.58;;
29412;SDS011;16389;50.126;8.450;2023-03-13T00:55:54;10.65;;;2.28;;
29412;SDS011;16389;50.126;8.450;2023-03-13T00:58:25;15.77;;;2.25;;
29412;SDS011;16389;50.126;8.450;2023-03-13T01:00:52;11.77;;;2.45;;
29412;SDS011;16389;50.126;8.450;2023-03-13T01:03:19;9.88;;;1.80;;
29412;SDS011;16389;50.126;8.450;2023-03-13T01:05:56;9.73;;;2.13;;
29412;SDS011;16389;50.126;8.450;2023-03-13T01:08:23;4.38;;;1.60;;
29412;SDS011;16389;50.126;8.450;2023-03-13T01:10:48;5.32;;;2.03;;
29412;SDS011;16389;50.126;8.450;2023-03-13T01:13:14;11.40;;;2.00;;
29412;SDS011;16389;50.126;8.450;2023-03-13T01:15:40;10.02;;;2.00;;
29412;SDS011;16389;50.126;8.450;2023-03-13T01:18:05;11.90;;;1.63;;
29412;SDS011;16389;50.126;8.450;2023-03-13T01:20:31;8.02;;;1.70;;
29412;SDS011;16389;50.126;8.450;2023-03-13T01:22:57;9.45;;;2.28;;
29412;SDS011;16389;50.126;8.450;2023-03-13T01:25:22;8.60;;;1.90;;
29412;SDS011;16389;50.126;8.450;2023-03-13T01:27:48;8.98;;;1.92;;
29412;SDS011;16389;50.126;8.450;2023-03-13T01:30:14;4.55;;;1.50;;
29412;SDS011;16389;50.126;8.450;2023-03-13T01:32:39;4.20;;;1.25;;
29412;SDS011;16389;50.126;8.450;2023-03-13T01:35:05;11.27;;;2.08;;
29412;SDS011;16389;50.126;8.450;2023-03-13T01:37:31;12.80;;;1.40;;
29412;SDS011;16389;50.126;8.450;2023-03-13T01:39:57;3.45;;;1.30;;
29412;SDS011;16389;50.126;8.450;2023-03-13T01:42:23;4.43;;;1.27;;
29412;SDS011;16389;50.126;8.450;2023-03-13T01:44:50;11.60;;;2.25;;
29412;SDS011;16389;50.126;8.450;2023-03-13T01:47:20;4.13;;;1.40;;
29412;SDS011;16389;50.126;8.450;2023-03-13T01:49:46;7.65;;;1.92;;
29412;SDS011;16389;50.126;8.450;2023-03-13T01:52:19;6.68;;;2.22;;
29412;SDS011;16389;50.126;8.450;2023-03-13T01:57:47;10.95;;;2.03;;
29412;SDS011;16389;50.126;8.450;2023-03-13T02:02:44;9.88;;;1.90;;
29412;SDS011;16389;50.126;8.450;2023-03-13T02:05:12;3.53;;;1.30;;
29412;SDS011;16389;50.126;8.450;2023-03-13T02:07:42;10.02;;;2.00;;
29412;SDS011;16389;50.126;8.450;2023-03-13T02:10:14;8.15;;;1.52;;
29412;SDS011;16389;50.126;8.450;2023-03-13T02:12:42;4.35;;;1.80;;
29412;SDS011;16389;50.126;8.450;2023-03-13T02:17:38;8.35;;;1.58;;
29412;SDS011;16389;50.126;8.450;2023-03-13T02:20:05;10.70;;;3.55;;
29412;SDS011;16389;50.126;8.450;2023-03-13T02:22:34;7.80;;;1.35;;
29412;SDS011;16389;50.126;8.450;2023-03-13T02:27:42;7.07;;;1.98;;
29412;SDS011;16389;50.126;8.450;2023-03-13T02:30:10;11.88;;;1.85;;
29412;SDS011;16389;50.126;8.450;2023-03-13T02:32:37;9.15;;;2.00;;
29412;SDS011;16389;50.126;8.450;2023-03-13T02:35:08;4.07;;;1.50;;
29412;SDS011;16389;50.126;8.450;2023-03-13T02:37:36;8.43;;;1.85;;
29412;SDS011;16389;50.126;8.450;2023-03-13T02:40:05;5.97;;;1.50;;
29412;SDS011;16389;50.126;8.450;2023-03-13T02:42:34;6.72;;;1.70;;
29412;SDS011;16389;50.126;8.450;2023-03-13T02:45:03;10.73;;;2.35;;
29412;SDS011;16389;50.126;8.450;2023-03-13T02:47:29;10.60;;;2.70;;
29412;SDS011;16389;50.126;8.450;2023-03-13T02:49:55;9.38;;;2.67;;
29412;SDS011;16389;50.126;8.450;2023-03-13T02:52:25;9.85;;;3.17;;
29412;SDS011;16389;50.126;8.450;2023-03-13T02:54:57;12.32;;;3.05;;
29412;SDS011;16389;50.126;8.450;2023-03-13T02:57:27;8.63;;;2.50;;
29412;SDS011;16389;50.126;8.450;2023-03-13T02:59:53;10.45;;;1.35;;
29412;SDS011;16389;50.126;8.450;2023-03-13T03:02:19;8.20;;;1.55;;
29412;SDS011;16389;50.126;8.450;2023-03-13T03:04:45;9.75;;;1.90;;
29412;SDS011;16389;50.126;8.450;2023-03-13T03:07:10;7.25;;;1.60;;
29412;SDS011;16389;50.126;8.450;2023-03-13T03:09:36;9.15;;;1.70;;
29412;SDS011;16389;50.126;8.450;2023-03-13T03:12:01;8.52;;;2.40;;
29412;SDS011;16389;50.126;8.450;2023-03-13T03:14:27;5.32;;;1.77;;
29412;SDS011;16389;50.126;8.450;2023-03-13T03:16:53;10.05;;;1.73;;
29412;SDS011;16389;50.126;8.450;2023-03-13T03:19:18;6.18;;;1.83;;
29412;SDS011;16389;50.126;8.450;2023-03-13T03:21:44;6.15;;;1.25;;
29412;SDS011;16389;50.126;8.450;2023-03-13T03:24:10;9.23;;;1.70;;
29412;SDS011;16389;50.126;8.450;2023-03-13T03:26:36;5.15;;;2.50;;
29412;SDS011;16389;50.126;8.450;2023-03-13T03:29:02;4.63;;;1.70;;
29412;SDS011;16389;50.126;8.450;2023-03-13T03:31:28;4.53;;;1.23;;
29412;SDS011;16389;50.126;8.450;2023-03-13T03:33:55;5.60;;;1.88;;
29412;SDS011;16389;50.126;8.450;2023-03-13T03:36:21;17.48;;;2.03;;
29412;SDS011;16389;50.126;8.450;2023-03-13T03:38:48;6.05;;;1.40;;
29412;SDS011;16389;50.126;8.450;2023-03-13T03:41:14;6.55;;;1.73;;
29412;SDS011;16389;50.126;8.450;2023-03-13T03:43:40;3.33;;;1.50;;
29412;SDS011;16389;50.126;8.450;2023-03-13T03:46:07;12.10;;;2.13;;
29412;SDS011;16389;50.126;8.450;2023-03-13T03:48:33;9.05;;;1.75;;
29412;SDS011;16389;50.126;8.450;2023-03-13T03:50:59;6.05;;;2.33;;
29412;SDS011;16389;50.126;8.450;2023-03-13T03:53:25;6.70;;;1.77;;
29412;SDS011;16389;50.126;8.450;2023-03-13T03:55:50;3.72;;;1.70;;
29412;SDS011;16389;50.126;8.450;2023-03-13T03:58:16;5.45;;;1.92;;
29412;SDS011;16389;50.126;8.450;2023-03-13T04:00:43;4.10;;;1.38;;
29412;SDS011;16389;50.126;8.450;2023-03-13T04:03:09;4.55;;;1.40;;
29412;SDS011;16389;50.126;8.450;2023-03-13T04:05:35;6.72;;;1.40;;
29412;SDS011;16389;50.126;8.450;2023-03-13T04:08:01;4.95;;;1.42;;
29412;SDS011;16389;50.126;8.450;2023-03-13T04:10:27;5.07;;;1.77;;
29412;SDS011;16389;50.126;8.450;2023-03-13T04:12:52;3.85;;;1.35;;
29412;SDS011;16389;50.126;8.450;2023-03-13T04:15:18;3.60;;;1.52;;
29412;SDS011;16389;50.126;8.450;2023-03-13T04:17:43;3.45;;;1.20;;
29412;SDS011;16389;50.126;8.450;2023-03-13T04:20:09;5.82;;;1.58;;
29412;SDS011;16389;50.126;8.450;2023-03-13T04:22:37;7.88;;;1.63;;
29412;SDS011;16389;50.126;8.450;2023-03-13T04:25:04;4.90;;;1.10;;
29412;SDS011;16389;50.126;8.450;2023-03-13T04:27:31;5.38;;;1.35;;
29412;SDS011;16389;50.126;8.450;2023-03-13T04:29:57;5.78;;;1.40;;
29412;SDS011;16389;50.126;8.450;2023-03-13T04:32:23;4.55;;;1.75;;
29412;SDS011;16389;50.126;8.450;2023-03-13T04:34:49;3.17;;;1.27;;
29412;SDS011;16389;50.126;8.450;2023-03-13T04:37:14;2.92;;;1.23;;
29412;SDS011;16389;50.126;8.450;2023-03-13T04:39:40;2.75;;;1.35;;
29412;SDS011;16389;50.126;8.450;2023-03-13T04:42:06;2.50;;;1.20;;
29412;SDS011;16389;50.126;8.450;2023-03-13T04:44:33;6.10;;;1.33;;
29412;SDS011;16389;50.126;8.450;2023-03-13T04:46:59;2.85;;;1.30;;
29412;SDS011;16389;50.126;8.450;2023-03-13T04:49:24;6.38;;;1.35;;
29412;SDS011;16389;50.126;8.450;2023-03-13T04:51:50;3.65;;;1.00;;
29412;SDS011;16389;50.126;8.450;2023-03-13T04:54:15;4.00;;;1.45;;
29412;SDS011;16389;50.126;8.450;2023-03-13T04:56:41;2.60;;;0.98;;
29412;SDS011;16389;50.126;8.450;2023-03-13T04:59:06;1.50;;;1.00;;
29412;SDS011;16389;50.126;8.450;2023-03-13T05:01:32;1.77;;;0.90;;
29412;SDS011;16389;50.126;8.450;2023-03-13T05:03:58;0.90;;;0.68;;
29412;SDS011;16389;50.126;8.450;2023-03-13T05:06:24;1.23;;;0.82;;
29412;SDS011;16389;50.126;8.450;2023-03-13T05:08:49;4.20;;;1.20;;
29412;SDS011;16389;50.126;8.450;2023-03-13T05:11:15;2.38;;;1.02;;
29412;SDS011;16389;50.126;8.450;2023-03-13T05:13:40;5.05;;;1.05;;
29412;SDS011;16389;50.126;8.450;2023-03-13T05:16:06;2.03;;;0.70;;
29412;SDS011;16389;50.126;8.450;2023-03-13T05:18:32;2.03;;;1.10;;
29412;SDS011;16389;50.126;8.450;2023-03-13T05:20:58;2.15;;;1.10;;
29412;SDS011;16389;50.126;8.450;2023-03-13T05:23:24;1.58;;;0.82;;
29412;SDS011;16389;50.126;8.450;2023-03-13T05:25:49;1.98;;;0.80;;
29412;SDS011;16389;50.126;8.450;2023-03-13T05:28:15;3.03;;;0.80;;
29412;SDS011;16389;50.126;8.450;2023-03-13T05:30:40;1.25;;;0.80;;
29412;SDS011;16389;50.126;8.450;2023-03-13T05:33:06;1.20;;;0.65;;
29412;SDS011;16389;50.126;8.450;2023-03-13T05:35:31;2.65;;;1.08;;
29412;SDS011;16389;50.126;8.450;2023-03-13T05:37:57;5.28;;;1.20;;
29412;SDS011;16389;50.126;8.450;2023-03-13T05:40:22;1.30;;;0.80;;
29412;SDS011;16389;50.126;8.450;2023-03-13T05:42:48;1.83;;;0.80;;
29412;SDS011;16389;50.126;8.450;2023-03-13T05:45:14;1.58;;;0.90;;
29412;SDS011;16389;50.126;8.450;2023-03-13T05:47:39;1.27;;;0.80;;
29412;SDS011;16389;50.126;8.450;2023-03-13T05:50:06;1.25;;;0.88;;
29412;SDS011;16389;50.126;8.450;2023-03-13T05:52:32;3.22;;;0.70;;
29412;SDS011;16389;50.126;8.450;2023-03-13T05:54:58;4.55;;;0.75;;
29412;SDS011;16389;50.126;8.450;2023-03-13T05:57:24;5.60;;;1.20;;
29412;SDS011;16389;50.126;8.450;2023-03-13T05:59:49;5.07;;;1.30;;
29412;SDS011;16389;50.126;8.450;2023-03-13T06:02:15;2.20;;;1.23;;
29412;SDS011;16389;50.126;8.450;2023-03-13T06:04:41;1.70;;;0.90;;
29412;SDS011;16389;50.126;8.450;2023-03-13T06:07:06;3.03;;;1.08;;
29412;SDS011;16389;50.126;8.450;2023-03-13T06:09:32;1.88;;;1.30;;
29412;SDS011;16389;50.126;8.450;2023-03-13T06:11:58;1.35;;;1.20;;
29412;SDS011;16389;50.126;8.450;2023-03-13T06:14:24;2.45;;;1.30;;
29412;SDS011;16389;50.126;8.450;2023-03-13T06:16:49;1.92;;;1.60;;
29412;SDS011;16389;50.126;8.450;2023-03-13T06:19:15;3.90;;;1.58;;
29412;SDS011;16389;50.126;8.450;2023-03-13T06:21:41;3.05;;;1.45;;
29412;SDS011;16389;50.126;8.450;2023-03-13T06:24:07;4.47;;;1.45;;
29412;SDS011;16389;50.126;8.450;2023-03-13T06:26:32;1.63;;;1.35;;
29412;SDS011;16389;50.126;8.450;2023-03-13T06:28:58;3.80;;;1.90;;
29412;SDS011;16389;50.126;8.450;2023-03-13T06:31:24;1.88;;;1.58;;
29412;SDS011;16389;50.126;8.450;2023-03-13T06:33:53;2.13;;;1.80;;
29412;SDS011;16389;50.126;8.450;2023-03-13T06:36:19;2.22;;;2.03;;
29412;SDS011;16389;50.126;8.450;2023-03-13T06:38:46;2.35;;;1.67;;
29412;SDS011;16389;50.126;8.450;2023-03-13T06:41:12;3.22;;;2.25;;
29412;SDS011;16389;50.126;8.450;2023-03-13T06:43:37;2.40;;;1.98;;
29412;SDS011;16389;50.126;8.450;2023-03-13T06:46:06;2.72;;;2.45;;
29412;SDS011;16389;50.126;8.450;2023-03-13T06:48:33;3.33;;;2.28;;
29412;SDS011;16389;50.126;8.450;2023-03-13T06:50:59;3.72;;;2.65;;
29412;SDS011;16389;50.126;8.450;2023-03-13T06:53:24;3.45;;;2.67;;
29412;SDS011;16389;50.126;8.450;2023-03-13T06:55:50;3.70;;;2.67;;
29412;SDS011;16389;50.126;8.450;2023-03-13T06:58:16;5.95;;;2.90;;
29412;SDS011;16389;50.126;8.450;2023-03-13T07:00:42;7.60;;;2.92;;
29412;SDS011;16389;50.126;8.450;2023-03-13T07:03:08;5.90;;;3.25;;
29412;SDS011;16389;50.126;8.450;2023-03-13T07:05:35;5.10;;;3.63;;
29412;SDS011;16389;50.126;8.450;2023-03-13T07:08:01;3.22;;;2.60;;
29412;SDS011;16389;50.126;8.450;2023-03-13T07:10:27;4.60;;;2.72;;
29412;SDS011;16389;50.126;8.450;2023-03-13T07:12:53;5.50;;;3.40;;
29412;SDS011;16389;50.126;8.450;2023-03-13T07:15:18;3.58;;;3.28;;
29412;SDS011;16389;50.126;8.450;2023-03-13T07:17:44;3.28;;;2.85;;
29412;SDS011;16389;50.126;8.450;2023-03-13T07:20:10;4.35;;;2.72;;
29412;SDS011;16389;50.126;8.450;2023-03-13T07:22:36;3.20;;;2.10;;
29412;SDS011;16389;50.126;8.450;2023-03-13T07:25:02;4.20;;;2.55;;
29412;SDS011;16389;50.126;8.450;2023-03-13T07:27:29;3.05;;;2.05;;
29412;SDS011;16389;50.126;8.450;2023-03-13T07:29:55;2.30;;;2.10;;
29412;SDS011;16389;50.126;8.450;2023-03-13T07:32:21;2.95;;;2.60;;
29412;SDS011;16389;50.126;8.450;2023-03-13T07:34:46;3.08;;;2.10;;
29412;SDS011;16389;50.126;8.450;2023-03-13T07:37:12;2.70;;;2.38;;
29412;SDS011;16389;50.126;8.450;2023-03-13T07:39:39;2.58;;;2.10;;
29412;SDS011;16389;50.126;8.450;2023-03-13T07:42:05;1.73;;;1.50;;
29412;SDS011;16389;50.126;8.450;2023-03-13T07:44:31;2.53;;;1.40;;
29412;SDS011;16389;50.126;8.450;2023-03-13T07:47:00;2.45;;;1.73;;
29412;SDS011;16389;50.126;8.450;2023-03-13T07:49:26;1.73;;;1.63;;
29412;SDS011;16389;50.126;8.450;2023-03-13T07:51:51;3.80;;;1.40;;
29412;SDS011;16389;50.126;8.450;2023-03-13T07:54:17;1.73;;;1.40;;
29412;SDS011;16389;50.126;8.450;2023-03-13T07:56:42;2.47;;;1.70;;
29412;SDS011;16389;50.126;8.450;2023-03-13T07:59:08;1.50;;;1.20;;
29412;SDS011;16389;50.126;8.450;2023-03-13T08:01:34;3.30;;;1.70;;
29412;SDS011;16389;50.126;8.450;2023-03-13T08:04:00;1.42;;;1.23;;
29412;SDS011;16389;50.126;8.450;2023-03-13T08:06:28;2.13;;;1.38;;
29412;SDS011;16389;50.126;8.450;2023-03-13T08:08:55;2.30;;;1.42;;
29412;SDS011;16389;50.126;8.450;2023-03-13T08:11:22;2.00;;;1.40;;
29412;SDS011;16389;50.126;8.450;2023-03-13T08:13:49;2.25;;;1.85;;
29412;SDS011;16389;50.126;8.450;2023-03-13T08:16:16;1.40;;;1.30;;
29412;SDS011;16389;50.126;8.450;2023-03-13T08:18:44;2.45;;;1.77;;
29412;SDS011;16389;50.126;8.450;2023-03-13T08:21:12;2.67;;;1.50;;
29412;SDS011;16389;50.126;8.450;2023-03-13T08:23:39;2.45;;;1.30;;
29412;SDS011;16389;50.126;8.450;2023-03-13T08:26:12;1.83;;;1.27;;
29412;SDS011;16389;50.126;8.450;2023-03-13T08:28:43;1.17;;;1.00;;
29412;SDS011;16389;50.126;8.450;2023-03-13T08:31:11;1.50;;;1.17;;
29412;SDS011;16389;50.126;8.450;2023-03-13T08:33:39;1.98;;;1.27;;
29412;SDS011;16389;50.126;8.450;2023-03-13T08:36:19;1.58;;;1.20;;
29412;SDS011;16389;50.126;8.450;2023-03-13T08:38:48;1.75;;;1.40;;
29412;SDS011;16389;50.126;8.450;2023-03-13T08:41:15;4.72;;;1.33;;
29412;SDS011;16389;50.126;8.450;2023-03-13T08:43:42;2.53;;;1.33;;
29412;SDS011;16389;50.126;8.450;2023-03-13T08:46:08;1.30;;;1.10;;
29412;SDS011;16389;50.126;8.450;2023-03-13T08:48:34;1.48;;;1.20;;
29412;SDS011;16389;50.126;8.450;2023-03-13T08:53:29;2.60;;;1.30;;
29412;SDS011;16389;50.126;8.450;2023-03-13T08:55:55;2.40;;;1.17;;
29412;SDS011;16389;50.126;8.450;2023-03-13T08:58:20;1.70;;;1.20;;
29412;SDS011;16389;50.126;8.450;2023-03-13T09:00:46;1.63;;;1.30;;
29412;SDS011;16389;50.126;8.450;2023-03-13T09:03:12;1.52;;;1.33;;
29412;SDS011;16389;50.126;8.450;2023-03-13T09:05:37;1.42;;;1.13;;
29412;SDS011;16389;50.126;8.450;2023-03-13T09:08:03;2.20;;;1.27;;
29412;SDS011;16389;50.126;8.450;2023-03-13T09:10:29;2.20;;;1.40;;
29412;SDS011;16389;50.126;8.450;2023-03-13T09:12:58;5.57;;;1.80;;
29412;SDS011;16389;50.126;8.450;2023-03-13T09:15:23;2.25;;;1.35;;
29412;SDS011;16389;50.126;8.450;2023-03-13T09:17:49;1.75;;;1.55;;
29412;SDS011;16389;50.126;8.450;2023-03-13T09:20:15;2.13;;;1.10;;
29412;SDS011;16389;50.126;8.450;2023-03-13T09:22:42;1.55;;;1.33;;
29412;SDS011;16389;50.126;8.450;2023-03-13T09:25:09;2.13;;;1.17;;
29412;SDS011;16389;50.126;8.450;2023-03-13T09:27:35;2.67;;;1.65;;
29412;SDS011;16389;50.126;8.450;2023-03-13T09:30:00;2.08;;;1.38;;
29412;SDS011;16389;50.126;8.450;2023-03-13T09:32:26;1.48;;;1.25;;
29412;SDS011;16389;50.126;8.450;2023-03-13T09:34:51;2.90;;;1.63;;
29412;SDS011;16389;50.126;8.450;2023-03-13T09:37:17;3.33;;;1.40;;
29412;SDS011;16389;50.126;8.450;2023-03-13T09:39:43;2.35;;;1.45;;
29412;SDS011;16389;50.126;8.450;2023-03-13T09:42:13;8.10;;;1.30;;
29412;SDS011;16389;50.126;8.450;2023-03-13T09:44:44;4.20;;;2.13;;
29412;SDS011;16389;50.126;8.450;2023-03-13T09:49:45;3.45;;;1.40;;
29412;SDS011;16389;50.126;8.450;2023-03-13T09:57:37;2.53;;;1.27;;
29412;SDS011;16389;50.126;8.450;2023-03-13T10:00:17;2.38;;;1.63;;
29412;SDS011;16389;50.126;8.450;2023-03-13T10:02:53;2.40;;;1.35;;
29412;SDS011;16389;50.126;8.450;2023-03-13T10:05:21;4.05;;;1.52;;
29412;SDS011;16389;50.126;8.450;2023-03-13T10:07:55;2.03;;;1.40;;
29412;SDS011;16389;50.126;8.450;2023-03-13T10:10:33;1.75;;;1.65;;
29412;SDS011;16389;50.126;8.450;2023-03-13T10:16:09;2.70;;;1.93;;
29412;SDS011;16389;50.126;8.450;2023-03-13T10:18:39;1.95;;;1.58;;
29412;SDS011;16389;50.126;8.450;2023-03-13T10:21:21;3.28;;;1.58;;
29412;SDS011;16389;50.126;8.450;2023-03-13T10:26:52;2.20;;;1.55;;
29412;SDS011;16389;50.126;8.450;2023-03-13T10:29:25;5.28;;;1.75;;
29412;SDS011;16389;50.126;8.450;2023-03-13T10:31:56;2.88;;;1.77;;
29412;SDS011;16389;50.126;8.450;2023-03-13T10:34:24;5.43;;;1.80;;
29412;SDS011;16389;50.126;8.450;2023-03-13T10:37:00;2.35;;;1.80;;
29412;SDS011;16389;50.126;8.450;2023-03-13T10:39:27;2.30;;;2.08;;
29412;SDS011;16389;50.126;8.450;2023-03-13T10:42:58;3.58;;;1.60;;
29412;SDS011;16389;50.126;8.450;2023-03-13T10:44:56;3.10;;;2.60;;
29412;SDS011;16389;50.126;8.450;2023-03-13T10:47:23;3.70;;;1.67;;
29412;SDS011;16389;50.126;8.450;2023-03-13T10:49:51;2.92;;;2.08;;
29412;SDS011;16389;50.126;8.450;2023-03-13T10:55:10;2.33;;;1.95;;
29412;SDS011;16389;50.126;8.450;2023-03-13T10:57:37;2.67;;;1.67;;
29412;SDS011;16389;50.126;8.450;2023-03-13T11:02:55;2.58;;;1.73;;
29412;SDS011;16389;50.126;8.450;2023-03-13T11:07:54;2.45;;;2.20;;
29412;SDS011;16389;50.126;8.450;2023-03-13T11:10:28;3.88;;;1.90;;
29412;SDS011;16389;50.126;8.450;2023-03-13T11:12:55;3.67;;;1.88;;
29412;SDS011;16389;50.126;8.450;2023-03-13T11:15:28;3.33;;;2.28;;
29412;SDS011;16389;50.126;8.450;2023-03-13T11:20:53;2.38;;;1.83;;
29412;SDS011;16389;50.126;8.450;2023-03-13T11:31:33;2.10;;;1.90;;
29412;SDS011;16389;50.126;8.450;2023-03-13T11:34:04;4.70;;;1.80;;
29412;SDS011;16389;50.126;8.450;2023-03-13T11:36:42;4.55;;;2.17;;
29412;SDS011;16389;50.126;8.450;2023-03-13T11:50:35;2.78;;;1.90;;
29412;SDS011;16389;50.126;8.450;2023-03-13T11:53:21;2.13;;;1.60;;
29412;SDS011;16389;50.126;8.450;2023-03-13T11:55:57;3.13;;;1.60;;
29412;SDS011;16389;50.126;8.450;2023-03-13T12:01:30;1.48;;;1.38;;
29412;SDS011;16389;50.126;8.450;2023-03-13T12:04:20;2.88;;;1.45;;
29412;SDS011;16389;50.126;8.450;2023-03-13T12:07:20;4.32;;;1.90;;
29412;SDS011;16389;50.126;8.450;2023-03-13T12:14:59;7.37;;;1.73;;
29412;SDS011;16389;50.126;8.450;2023-03-13T12:17:43;1.85;;;1.00;;
29412;SDS011;16389;50.126;8.450;2023-03-13T12:23:18;3.17;;;1.38;;
29412;SDS011;16389;50.126;8.450;2023-03-13T12:25:54;2.25;;;1.25;;
29412;SDS011;16389;50.126;8.450;2023-03-13T12:37:49;1.58;;;1.25;;
29412;SDS011;16389;50.126;8.450;2023-03-13T12:43:31;3.00;;;1.45;;
29412;SDS011;16389;50.126;8.450;2023-03-13T13:01:03;3.63;;;1.50;;
29412;SDS011;16389;50.126;8.450;2023-03-13T13:03:37;2.67;;;1.75;;
29412;SDS011;16389;50.126;8.450;2023-03-13T13:06:14;2.70;;;1.75;;
29412;SDS011;16389;50.126;8.450;2023-03-13T13:11:44;3.25;;;2.00;;
29412;SDS011;16389;50.126;8.450;2023-03-13T13:20:47;2.33;;;1.33;;
29412;SDS011;16389;50.126;8.450;2023-03-13T13:39:20;2.67;;;1.40;;
29412;SDS011;16389;50.126;8.450;2023-03-13T13:57:30;2.10;;;0.80;;
29412;SDS011;16389;50.126;8.450;2023-03-13T14:00:13;1.90;;;0.82;;
29412;SDS011;16389;50.126;8.450;2023-03-13T14:02:53;0.95;;;0.80;;
29412;SDS011;16389;50.126;8.450;2023-03-13T14:05:22;1.17;;;0.77;;
29412;SDS011;16389;50.126;8.450;2023-03-13T14:10:42;1.40;;;1.00;;
29412;SDS011;16389;50.126;8.450;2023-03-13T14:13:18;2.83;;;1.30;;
29412;SDS011;16389;50.126;8.450;2023-03-13T14:15:46;2.05;;;1.08;;
29412;SDS011;16389;50.126;8.450;2023-03-13T14:21:04;2.38;;;0.95;;
29412;SDS011;16389;50.126;8.450;2023-03-13T14:23:47;1.38;;;1.00;;
29412;SDS011;16389;50.126;8.450;2023-03-13T14:28:39;1.38;;;1.15;;
29412;SDS011;16389;50.126;8.450;2023-03-13T14:31:07;5.00;;;0.88;;
29412;SDS011;16389;50.126;8.450;2023-03-13T14:33:33;1.27;;;0.90;;
29412;SDS011;16389;50.126;8.450;2023-03-13T14:36:00;0.75;;;0.70;;
29412;SDS011;16389;50.126;8.450;2023-03-13T14:38:26;2.80;;;1.20;;
29412;SDS011;16389;50.126;8.450;2023-03-13T14:40:57;1.10;;;1.02;;
29412;SDS011;16389;50.126;8.450;2023-03-13T14:43:41;5.57;;;0.90;;
29412;SDS011;16389;50.126;8.450;2023-03-13T14:46:14;8.60;;;1.02;;
29412;SDS011;16389;50.126;8.450;2023-03-13T14:48:53;3.90;;;1.17;;
29412;SDS011;16389;50.126;8.450;2023-03-13T14:51:21;3.03;;;1.02;;
29412;SDS011;16389;50.126;8.450;2023-03-13T14:53:56;1.35;;;1.25;;
29412;SDS011;16389;50.126;8.450;2023-03-13T14:59:11;2.17;;;1.20;;
29412;SDS011;16389;50.126;8.450;2023-03-13T15:01:39;8.38;;;1.80;;
29412;SDS011;16389;50.126;8.450;2023-03-13T15:04:04;2.60;;;1.60;;
29412;SDS011;16389;50.126;8.450;2023-03-13T15:06:30;1.92;;;1.00;;
29412;SDS011;16389;50.126;8.450;2023-03-13T15:11:42;0.98;;;0.50;;
29412;SDS011;16389;50.126;8.450;2023-03-13T15:14:30;1.95;;;0.60;;
29412;SDS011;16389;50.126;8.450;2023-03-13T15:17:01;0.50;;;0.50;;
29412;SDS011;16389;50.126;8.450;2023-03-13T15:19:28;3.88;;;0.80;;
29412;SDS011;16389;50.126;8.450;2023-03-13T15:21:55;0.50;;;0.50;;
29412;SDS011;16389;50.126;8.450;2023-03-13T15:24:21;2.47;;;0.40;;
29412;SDS011;16389;50.126;8.450;2023-03-13T15:26:46;0.50;;;0.50;;
29412;SDS011;16389;50.126;8.450;2023-03-13T15:29:12;0.75;;;0.55;;
29412;SDS011;16389;50.126;8.450;2023-03-13T15:31:37;0.60;;;0.50;;
29412;SDS011;16389;50.126;8.450;2023-03-13T15:34:05;0.55;;;0.55;;
29412;SDS011;16389;50.126;8.450;2023-03-13T15:36:34;1.23;;;0.68;;
29412;SDS011;16389;50.126;8.450;2023-03-13T15:39:00;0.47;;;0.47;;
29412;SDS011;16389;50.126;8.450;2023-03-13T15:41:25;0.50;;;0.50;;
29412;SDS011;16389;50.126;8.450;2023-03-13T15:43:51;0.55;;;0.45;;
29412;SDS011;16389;50.126;8.450;2023-03-13T15:46:19;1.80;;;0.60;;
29412;SDS011;16389;50.126;8.450;2023-03-13T15:48:46;0.65;;;0.60;;
29412;SDS011;16389;50.126;8.450;2023-03-13T15:51:12;0.90;;;0.80;;
29412;SDS011;16389;50.126;8.450;2023-03-13T15:53:39;0.60;;;0.50;;
29412;SDS011;16389;50.126;8.450;2023-03-13T15:56:24;0.80;;;0.50;;
29412;SDS011;16389;50.126;8.450;2023-03-13T15:58:54;1.67;;;0.60;;
29412;SDS011;16389;50.126;8.450;2023-03-13T16:01:20;0.95;;;0.60;;
29412;SDS011;16389;50.126;8.450;2023-03-13T16:03:47;0.90;;;0.60;;
29412;SDS011;16389;50.126;8.450;2023-03-13T16:06:21;0.93;;;0.60;;
29412;SDS011;16389;50.126;8.450;2023-03-13T16:08:54;0.77;;;0.68;;
29412;SDS011;16389;50.126;8.450;2023-03-13T16:11:21;0.65;;;0.40;;
29412;SDS011;16389;50.126;8.450;2023-03-13T16:13:48;3.38;;;0.80;;
29412;SDS011;16389;50.126;8.450;2023-03-13T16:16:24;1.15;;;0.77;;
29412;SDS011;16389;50.126;8.450;2023-03-13T16:18:52;0.80;;;0.50;;
29412;SDS011;16389;50.126;8.450;2023-03-13T16:21:28;1.10;;;0.88;;
29412;SDS011;16389;50.126;8.450;2023-03-13T16:23:55;1.25;;;0.70;;
29412;SDS011;16389;50.126;8.450;2023-03-13T16:26:25;1.38;;;0.60;;
29412;SDS011;16389;50.126;8.450;2023-03-13T16:28:52;1.10;;;0.70;;
29412;SDS011;16389;50.126;8.450;2023-03-13T16:31:26;1.15;;;0.70;;
29412;SDS011;16389;50.126;8.450;2023-03-13T16:33:57;1.48;;;0.57;;
29412;SDS011;16389;50.126;8.450;2023-03-13T16:36:29;0.77;;;0.68;;
29412;SDS011;16389;50.126;8.450;2023-03-13T16:38:56;1.15;;;0.85;;
29412;SDS011;16389;50.126;8.450;2023-03-13T16:41:24;1.05;;;0.80;;
29412;SDS011;16389;50.126;8.450;2023-03-13T16:43:51;2.33;;;0.70;;
29412;SDS011;16389;50.126;8.450;2023-03-13T16:46:22;4.70;;;0.70;;
29412;SDS011;16389;50.126;8.450;2023-03-13T16:48:51;1.83;;;0.52;;
29412;SDS011;16389;50.126;8.450;2023-03-13T16:51:20;2.03;;;0.90;;
29412;SDS011;16389;50.126;8.450;2023-03-13T16:53:48;0.73;;;0.63;;
29412;SDS011;16389;50.126;8.450;2023-03-13T16:56:23;0.85;;;0.60;;
29412;SDS011;16389;50.126;8.450;2023-03-13T16:58:53;2.30;;;0.52;;
29412;SDS011;16389;50.126;8.450;2023-03-13T17:01:20;1.45;;;0.63;;
29412;SDS011;16389;50.126;8.450;2023-03-13T17:03:48;0.68;;;0.57;;
29412;SDS011;16389;50.126;8.450;2023-03-13T17:06:15;0.75;;;0.60;;
29412;SDS011;16389;50.126;8.450;2023-03-13T17:08:49;1.23;;;0.60;;
29412;SDS011;16389;50.126;8.450;2023-03-13T17:11:15;0.80;;;0.68;;
29412;SDS011;16389;50.126;8.450;2023-03-13T17:13:43;1.15;;;0.80;;
29412;SDS011;16389;50.126;8.450;2023-03-13T17:16:32;0.98;;;0.70;;
29412;SDS011;16389;50.126;8.450;2023-03-13T17:18:58;2.00;;;0.70;;
29412;SDS011;16389;50.126;8.450;2023-03-13T17:21:25;1.77;;;0.73;;
29412;SDS011;16389;50.126;8.450;2023-03-13T17:23:54;2.05;;;0.73;;
29412;SDS011;16389;50.126;8.450;2023-03-13T17:26:21;0.73;;;0.63;;
29412;SDS011;16389;50.126;8.450;2023-03-13T17:28:49;1.60;;;0.63;;